EW3885 Weather Reports


Display with metric or nautical units.
time (UTC)temp
F
wind
direction
speed
MPH
gust
MPH
rain 1hr
in
rain 24hr
in
rain mn
in
humidity
%
barometer
mb
20190526074526 64 292 7.0 14.0 0.00 0.02 0.00 72 1016.2
20190526073036 65 327 9.0 18.0 0.00 0.02 0.00 71 1016.2
20190526071521 64 309 8.0 17.0 0.00 0.02 0.00 72 1016.4
20190526070047 65 25 8.0 18.0 0.00 0.02 0.00 71 1016.2
20190526064510 65 329 8.0 15.0 0.00 0.02 0.00 71 1016.2
20190526063006 65 356 7.0 18.0 0.00 0.02 0.00 71 1016.2
20190526061511 65 320 9.0 17.0 0.00 0.02 0.00 71 1016.2
20190526060133 65 231 8.0 16.0 0.00 0.02 0.00 71 1016.3
20190526054724 66 352 7.0 17.0 0.00 0.02 0.00 70 1016.3
20190526053139 66 300 6.0 16.0 0.00 0.02 0.00 70 1016.3
20190526051603 67 322 8.0 15.0 0.00 0.02 0.00 69 1016.4
20190526050111 66 324 5.0 14.0 0.00 0.02 0.00 68 1016.5
20190526044623 67 318 10.0 17.0 0.00 0.02 0.00 68 1016.7
20190526043119 67 327 9.0 17.0 0.00 0.02 0.00 67 1016.9
20190526041545 67 330 12.0 18.0 0.00 0.02 0.00 67 1017.0
20190526040043 68 281 11.0 21.0 0.00 0.02 0.00 66 1017.1
20190526034534 68 305 12.0 25.0 0.00 0.02 0.02 66 1017.2
20190526033045 67 295 8.0 15.0 0.00 0.02 0.02 65 1017.4
20190526031535 68 316 9.0 16.0 0.00 0.02 0.02 65 1017.3
20190526030030 68 280 10.0 18.0 0.00 0.02 0.02 64 1017.5
20190526024605 68 303 10.0 16.0 0.00 0.02 0.02 63 1017.6
20190526023045 68 327 9.0 15.0 0.00 0.02 0.02 62 1017.6
20190526021523 68 291 10.0 21.0 0.00 0.02 0.02 61 1017.6
20190526020040 68 285 7.0 19.0 0.00 0.02 0.02 61 1017.4
20190526014540 69 307 11.0 20.0 0.00 0.02 0.02 59 1017.4
20190526013035 69 285 8.0 17.0 0.00 0.02 0.02 57 1017.3
20190526011522 69 283 10.0 18.0 0.00 0.02 0.02 56 1017.2
20190526010020 70 299 10.0 18.0 0.00 0.02 0.02 55 1017.0
20190526004545 70 283 9.0 19.0 0.00 0.02 0.02 53 1017.0
20190526003038 71 354 11.0 19.0 0.00 0.02 0.02 51 1017.0
20190526001539 72 297 11.0 18.0 0.00 0.02 0.02 49 1017.1
20190526000018 73 321 10.0 21.0 0.00 0.02 0.02 48 1017.4
20190525234513 73 285 10.0 15.0 0.00 0.02 0.02 49 1017.4
20190525233035 74 318 11.0 16.0 0.00 0.02 0.02 50 1017.2
20190525231513 73 292 10.0 20.0 0.00 0.02 0.02 51 1017.2
20190525230009 74 286 8.0 15.0 0.00 0.02 0.02 51 1017.2
20190525224511 75 283 8.0 17.0 0.00 0.02 0.02 51 1017.0
20190525223006 73 288 6.0 14.0 0.00 0.02 0.02 53 1017.2
20190525221514 73 266 6.0 9.0 0.00 0.02 0.02 61 1017.2
20190525220003 73 279 3.0 7.0 0.00 0.02 0.02 62 1017.1
20190525214503 74 274 1.0 8.0 0.00 0.02 0.02 61 1017.0
20190525213003 75 259 2.0 10.0 0.00 0.02 0.02 57 1016.8
20190525211646 76 271 3.0 11.0 0.00 0.02 0.02 55 1016.8
20190525210133 75 270 6.0 11.0 0.00 0.02 0.02 57 1017.1
20190525204704 75 248 7.0 12.0 0.00 0.02 0.02 56 1017.1
20190525203202 76 267 7.0 12.0 0.00 0.02 0.02 55 1016.9
20190525201733 76 264 9.0 13.0 0.00 0.02 0.02 55 1017.0
20190525200204 75 220 4.0 8.0 0.00 0.02 0.02 58 1016.9
20190525194755 77 204 2.0 6.0 0.00 0.02 0.02 56 1017.1
20190525193200 76 88 3.0 8.0 0.00 0.02 0.02 57 1017.2
20190525191741 75 162 2.0 6.0 0.00 0.02 0.02 61 1017.4
20190525190132 75 202 2.0 7.0 0.00 0.02 0.02 59 1017.7
20190525183159 74 292 1.0 8.0 0.00 0.02 0.02 64 1018.0
20190525180152 75 197 2.0 5.0 0.01 0.02 0.02 61 1018.4
20190525174738 74 209 3.0 8.0 0.02 0.02 0.02 60 1018.3
20190525173223 73 300 3.0 7.0 0.02 0.02 0.02 68 1018.5
20190525171627 70 156 1.0 4.0 0.02 0.02 0.02 73 1018.8
20190525170137 69 278 7.0 13.0 0.01 0.01 0.01 66 1019.0
20190525164646 73 84 1.0 8.0 0.00 0.00 0.00 61 1019.0
20190525163057 72 328 3.0 11.0 0.00 0.00 0.00 59 1019.2
20190525161721 71 58 1.0 8.0 0.00 0.00 0.00 62 1019.5
20190525160052 72 283 3.0 5.0 0.00 0.00 0.00 61 1019.6
20190525154545 72 104 1.0 5.0 0.00 0.00 0.00 60 1019.5
20190525153048 73 138 3.0 7.0 0.00 0.00 0.00 61 1019.5
20190525151601 72 132 3.0 6.0 0.00 0.00 0.00 59 1019.6
20190525150135 73 161 3.0 9.0 0.00 0.00 0.00 57 1019.5
20190525144622 73 108 4.0 7.0 0.00 0.00 0.00 54 1019.6
20190525143128 73 263 2.0 8.0 0.00 0.00 0.00 55 1019.5
20190525141602 73 237 3.0 10.0 0.00 0.00 0.00 55 1019.5
20190525140122 72 245 2.0 7.0 0.00 0.00 0.00 57 1019.6
20190525134625 72 93 3.0 7.0 0.00 0.00 0.00 58 1019.5
20190525133043 72 110 3.0 6.0 0.00 0.00 0.00 53 1019.5
20190525131608 71 76 4.0 7.0 0.00 0.00 0.00 54 1019.5
20190525130045 71 115 2.0 7.0 0.00 0.00 0.00 54 1019.5
20190525124525 72 165 3.0 7.0 0.00 0.00 0.00 49 1019.5
20190525123022 72 170 1.0 3.0 0.00 0.00 0.00 48 1019.5
20190525121530 71 214 0.0 4.0 0.00 0.00 0.00 50 1019.5
20190525120010 70 240 0.0 4.0 0.00 0.00 0.00 49 1019.6
20190525114507 69 233 4.0 6.0 0.00 0.00 0.00 49 1019.3
20190525113023 69 249 3.0 5.0 0.00 0.00 0.00 47 1019.4
20190525110153 69 226 3.0 5.0 0.00 0.00 0.00 47 1019.2
20190525104715 69 243 4.0 5.0 0.00 0.00 0.00 47 1019.3
20190525103129 68 212 1.0 4.0 0.00 0.00 0.00 46 1019.1
20190525101723 68 257 4.0 6.0 0.00 0.00 0.00 46 1019.0
20190525100147 68 236 3.0 6.0 0.00 0.00 0.00 47 1018.6
20190525094616 68 248 5.0 7.0 0.00 0.00 0.00 50 1018.5
20190525093122 68 264 5.0 6.0 0.00 0.00 0.00 49 1018.7
20190525091701 68 264 4.0 6.0 0.00 0.00 0.00 48 1018.4
20190525090222 68 270 3.0 6.0 0.00 0.00 0.00 49 1018.5
20190525084635 68 276 4.0 6.0 0.00 0.00 0.00 50 1018.4
20190525083148 68 265 6.0 8.0 0.00 0.00 0.00 53 1018.3
20190525081638 68 256 6.0 8.0 0.00 0.00 0.00 55 1017.9
20190525080205 67 276 5.0 10.0 0.00 0.00 0.00 57 1017.9